createdAt,value
2019-03-20T00:02:02.377Z,2.96
2019-03-20T00:04:29.078Z,2.97
2019-03-20T00:06:55.770Z,2.91
2019-03-20T00:09:22.436Z,2.89
2019-03-20T00:11:49.124Z,2.83
2019-03-20T00:14:15.786Z,2.82
2019-03-20T00:16:42.867Z,2.80
2019-03-20T00:19:18.943Z,2.90
2019-03-20T00:21:45.638Z,3.27
2019-03-20T00:24:12.500Z,3.29
2019-03-20T00:26:39.207Z,3.10
2019-03-20T00:29:05.888Z,3.07
2019-03-20T00:31:32.555Z,3.12
2019-03-20T00:33:59.515Z,3.05
2019-03-20T00:36:26.374Z,2.93
2019-03-20T00:38:53.045Z,2.89
2019-03-20T00:41:19.943Z,2.89
2019-03-20T00:43:46.606Z,2.91
2019-03-20T00:46:14.869Z,2.90
2019-03-20T00:48:41.586Z,2.89
2019-03-20T00:51:09.353Z,2.89
2019-03-20T00:53:36.120Z,2.88
2019-03-20T00:56:03.214Z,2.85
2019-03-20T00:58:29.895Z,2.83
2019-03-20T01:00:56.682Z,2.80
2019-03-20T01:03:23.663Z,2.74
2019-03-20T01:05:50.340Z,2.81
2019-03-20T01:08:17.013Z,2.81
2019-03-20T01:10:43.721Z,2.84
2019-03-20T01:13:10.480Z,2.76
2019-03-20T01:15:37.196Z,2.68
2019-03-20T01:18:03.993Z,2.61
2019-03-20T01:20:30.674Z,2.61
2019-03-20T01:22:57.716Z,2.64
2019-03-20T01:25:24.837Z,2.62
2019-03-20T01:27:51.609Z,2.94
2019-03-20T01:30:34.711Z,2.84
2019-03-20T01:33:03.148Z,2.86
2019-03-20T01:35:30.124Z,2.69
2019-03-20T01:37:56.798Z,2.55
2019-03-20T01:40:23.557Z,2.59
2019-03-20T01:42:50.241Z,2.66
2019-03-20T01:45:17.079Z,2.56
2019-03-20T01:47:44.041Z,2.57
2019-03-20T01:50:10.683Z,2.57
2019-03-20T01:52:37.355Z,2.62
2019-03-20T01:55:04.170Z,2.61
2019-03-20T01:57:30.830Z,2.57
2019-03-20T01:59:57.506Z,2.57
2019-03-20T02:02:24.368Z,2.55
2019-03-20T02:04:51.307Z,2.55
2019-03-20T02:07:17.980Z,2.56
2019-03-20T02:09:44.889Z,2.52
2019-03-20T02:12:11.538Z,2.51
2019-03-20T02:14:38.211Z,2.59
2019-03-20T02:17:04.881Z,2.64
2019-03-20T02:19:31.822Z,2.58
2019-03-20T02:21:58.595Z,2.62
2019-03-20T02:24:43.181Z,2.68
2019-03-20T02:27:09.856Z,2.72
2019-03-20T02:29:36.641Z,2.78
2019-03-20T02:32:03.531Z,2.69
2019-03-20T02:34:30.438Z,2.67
2019-03-20T02:36:57.124Z,2.71
2019-03-20T02:39:23.814Z,2.67
2019-03-20T02:41:50.594Z,2.68
2019-03-20T02:44:17.266Z,2.71
2019-03-20T02:46:44.075Z,2.71
2019-03-20T02:49:10.757Z,2.73
2019-03-20T02:51:37.440Z,2.68
2019-03-20T02:54:04.241Z,2.71
2019-03-20T02:56:31.000Z,2.71
2019-03-20T02:58:57.681Z,2.71
2019-03-20T03:01:24.368Z,2.72
2019-03-20T03:03:51.033Z,2.80
2019-03-20T03:06:17.699Z,2.80
2019-03-20T03:08:44.399Z,2.80
2019-03-20T03:11:11.080Z,2.81
2019-03-20T03:13:37.730Z,2.71
2019-03-20T03:16:04.408Z,2.68
2019-03-20T03:18:31.175Z,2.76
2019-03-20T03:20:57.845Z,2.78
2019-03-20T03:23:25.471Z,2.80
2019-03-20T03:25:52.172Z,2.84
2019-03-20T03:28:18.841Z,2.83
2019-03-20T03:30:45.649Z,2.80
2019-03-20T03:33:12.404Z,2.85
2019-03-20T03:35:39.223Z,2.88
2019-03-20T03:38:06.000Z,2.91
2019-03-20T03:40:32.833Z,3.02
2019-03-20T03:42:59.746Z,3.03
2019-03-20T03:45:26.437Z,3.08
2019-03-20T03:47:56.496Z,3.00
2019-03-20T03:50:23.298Z,3.11
2019-03-20T03:52:49.988Z,3.07
2019-03-20T03:55:16.673Z,3.12
2019-03-20T03:57:43.409Z,3.12
2019-03-20T04:00:11.608Z,3.17
2019-03-20T04:02:38.299Z,3.22
2019-03-20T04:05:05.112Z,3.24
2019-03-20T04:07:31.958Z,3.16
2019-03-20T04:09:58.635Z,3.08
2019-03-20T04:12:25.474Z,3.12
2019-03-20T04:14:52.281Z,3.08
2019-03-20T04:17:20.833Z,3.13
2019-03-20T04:19:47.507Z,3.13
2019-03-20T04:22:14.229Z,3.14
2019-03-20T04:24:40.894Z,3.12
2019-03-20T04:27:07.762Z,3.20
2019-03-20T04:29:34.550Z,3.25
2019-03-20T04:32:01.266Z,3.22
2019-03-20T04:34:27.934Z,3.28
2019-03-20T04:36:54.719Z,3.28
2019-03-20T04:39:21.450Z,3.29
2019-03-20T04:41:48.086Z,3.32
2019-03-20T04:44:14.769Z,3.39
2019-03-20T04:46:41.653Z,3.39
2019-03-20T04:49:08.311Z,3.33
2019-03-20T04:51:35.090Z,3.36
2019-03-20T04:54:01.798Z,3.37
2019-03-20T04:56:28.465Z,3.36
2019-03-20T04:58:55.128Z,3.40
2019-03-20T05:01:21.811Z,3.41
2019-03-20T05:03:48.499Z,3.41
2019-03-20T05:06:15.261Z,3.33
2019-03-20T05:08:42.026Z,3.29
2019-03-20T05:11:09.047Z,3.27
2019-03-20T05:13:35.709Z,3.27
2019-03-20T05:16:02.477Z,3.27
2019-03-20T05:18:29.359Z,3.30
2019-03-20T05:20:56.045Z,3.30
2019-03-20T05:23:22.736Z,3.31
2019-03-20T05:25:49.753Z,3.36
2019-03-20T05:28:16.417Z,3.36
2019-03-20T05:30:43.195Z,3.34
2019-03-20T05:33:10.314Z,3.36
2019-03-20T05:35:37.009Z,3.38
2019-03-20T05:38:03.793Z,3.42
2019-03-20T05:40:30.503Z,3.44
2019-03-20T05:42:57.157Z,3.47
2019-03-20T05:45:23.930Z,3.40
2019-03-20T05:47:50.607Z,3.40
2019-03-20T05:50:17.555Z,3.43
2019-03-20T05:52:44.335Z,3.46
2019-03-20T05:55:11.317Z,3.43
2019-03-20T05:57:37.984Z,3.44
2019-03-20T06:00:07.102Z,3.45
2019-03-20T06:02:33.786Z,3.46
2019-03-20T06:05:00.468Z,3.48
2019-03-20T06:07:27.176Z,3.48
2019-03-20T06:09:53.843Z,3.52
2019-03-20T06:12:20.515Z,3.52
2019-03-20T06:14:47.220Z,3.53
2019-03-20T06:17:13.912Z,3.57
2019-03-20T06:19:40.683Z,3.64
2019-03-20T06:22:07.502Z,3.62
2019-03-20T06:24:34.264Z,3.71
2019-03-20T06:27:01.046Z,3.84
2019-03-20T06:29:28.662Z,3.92
2019-03-20T06:31:55.330Z,4.04
2019-03-20T06:34:22.006Z,4.09
2019-03-20T06:36:48.672Z,4.19
2019-03-20T06:39:15.396Z,4.31
2019-03-20T06:41:42.075Z,4.37
2019-03-20T06:44:08.754Z,4.46
2019-03-20T06:46:35.583Z,4.58
2019-03-20T06:49:02.266Z,4.69
2019-03-20T06:51:28.946Z,4.84
2019-03-20T06:53:55.743Z,4.95
2019-03-20T06:56:22.412Z,4.69
2019-03-20T06:59:11.940Z,5.21
2019-03-20T07:01:38.723Z,5.21
2019-03-20T07:04:13.146Z,5.35
2019-03-20T07:06:53.237Z,5.44
2019-03-20T07:09:24.739Z,5.53
2019-03-20T07:11:51.434Z,5.62
2019-03-20T07:14:18.259Z,5.79
2019-03-20T07:16:45.049Z,5.79
2019-03-20T07:19:11.820Z,5.86
2019-03-20T07:21:38.502Z,5.90
2019-03-20T07:24:05.333Z,5.99
2019-03-20T07:26:32.105Z,6.10
2019-03-20T07:28:58.744Z,6.05
2019-03-20T07:31:25.629Z,6.09
2019-03-20T07:33:52.718Z,6.09
2019-03-20T07:36:19.505Z,6.13
2019-03-20T07:38:46.334Z,6.18
2019-03-20T07:41:13.430Z,6.27
2019-03-20T07:43:40.101Z,6.38
2019-03-20T07:46:08.038Z,6.52
2019-03-20T07:48:34.782Z,6.72
2019-03-20T07:51:02.014Z,6.77
2019-03-20T07:53:29.083Z,6.88
2019-03-20T07:55:56.569Z,6.78
2019-03-20T07:58:23.367Z,6.81
2019-03-20T08:00:50.044Z,6.85
2019-03-20T08:03:16.815Z,6.97
2019-03-20T08:05:43.662Z,7.05
2019-03-20T08:08:10.330Z,6.95
2019-03-20T08:10:37.199Z,7.07
2019-03-20T08:13:04.214Z,7.04
2019-03-20T08:15:32.011Z,6.98
2019-03-20T08:17:58.709Z,6.88
2019-03-20T08:20:25.602Z,7.00
2019-03-20T08:22:52.291Z,6.93
2019-03-20T08:25:19.075Z,7.05
2019-03-20T08:27:45.743Z,7.01
2019-03-20T08:30:13.919Z,6.93
2019-03-20T08:32:40.987Z,7.15
2019-03-20T08:35:07.887Z,7.09
2019-03-20T08:37:34.653Z,7.02
2019-03-20T08:40:01.442Z,7.22
2019-03-20T08:42:28.198Z,7.27
2019-03-20T08:44:56.455Z,7.33
2019-03-20T08:47:23.233Z,7.44
2019-03-20T08:49:49.905Z,7.42
2019-03-20T08:52:16.610Z,7.56
2019-03-20T08:54:43.282Z,7.51
2019-03-20T08:57:09.959Z,7.55
2019-03-20T08:59:36.879Z,7.60
2019-03-20T09:02:03.659Z,7.62
2019-03-20T09:04:30.323Z,7.68
2019-03-20T09:06:57.025Z,7.76
2019-03-20T09:09:23.690Z,7.86
2019-03-20T09:11:50.381Z,7.86
2019-03-20T09:14:17.059Z,7.91
2019-03-20T09:16:43.896Z,8.01
2019-03-20T09:19:10.582Z,8.01
2019-03-20T09:21:37.253Z,8.00
2019-03-20T09:24:04.148Z,8.13
2019-03-20T09:26:30.832Z,8.15
2019-03-20T09:28:57.520Z,8.20
2019-03-20T09:31:25.259Z,8.29
2019-03-20T09:33:52.269Z,8.33
2019-03-20T09:36:19.124Z,8.40
2019-03-20T09:38:45.790Z,8.42
2019-03-20T09:41:12.694Z,8.48
2019-03-20T09:43:39.399Z,8.48
2019-03-20T09:46:06.083Z,8.51
2019-03-20T09:48:32.776Z,8.51
2019-03-20T09:50:59.434Z,8.47
2019-03-20T09:53:27.201Z,8.52
2019-03-20T09:55:54.032Z,8.57
2019-03-20T09:58:20.893Z,8.69
2019-03-20T10:00:47.642Z,8.68
2019-03-20T10:03:14.316Z,8.57
2019-03-20T10:05:41.082Z,8.63
2019-03-20T10:08:07.899Z,8.78
2019-03-20T10:10:34.666Z,8.83
2019-03-20T10:13:01.341Z,8.75
2019-03-20T10:15:28.131Z,8.83
2019-03-20T10:17:55.117Z,8.84
2019-03-20T10:20:22.219Z,8.81
2019-03-20T10:22:49.098Z,8.85
2019-03-20T10:25:15.968Z,8.93
2019-03-20T10:27:42.932Z,9.10
2019-03-20T10:30:12.981Z,9.24
2019-03-20T10:32:39.637Z,9.27
2019-03-20T10:35:07.313Z,9.03
2019-03-20T10:37:34.016Z,9.16
2019-03-20T10:40:00.727Z,9.16
2019-03-20T10:42:27.450Z,9.15
2019-03-20T10:44:54.113Z,9.15
2019-03-20T10:47:20.777Z,9.09
2019-03-20T10:49:48.783Z,9.14
2019-03-20T10:52:15.450Z,9.23
2019-03-20T10:54:42.219Z,9.15
2019-03-20T10:57:09.025Z,9.15
2019-03-20T10:59:36.814Z,9.27
2019-03-20T11:02:03.598Z,9.30
2019-03-20T11:04:31.380Z,9.20
2019-03-20T11:06:58.091Z,9.19
2019-03-20T11:09:24.797Z,9.17
2019-03-20T11:11:51.455Z,9.24
2019-03-20T11:14:18.164Z,9.27
2019-03-20T11:16:45.069Z,9.32
2019-03-20T11:19:11.730Z,9.31
2019-03-20T11:21:38.404Z,9.27
2019-03-20T11:24:05.197Z,8.93
2019-03-20T11:26:31.914Z,9.35
2019-03-20T11:28:58.641Z,9.37
2019-03-20T11:31:25.344Z,9.43
2019-03-20T11:33:52.027Z,9.49
2019-03-20T11:36:18.829Z,9.49
2019-03-20T11:38:45.605Z,9.51
2019-03-20T11:41:12.434Z,9.49
2019-03-20T11:43:39.089Z,9.51
2019-03-20T11:46:06.978Z,9.56
2019-03-20T11:48:33.671Z,9.59
2019-03-20T11:51:01.353Z,9.64
2019-03-20T11:53:28.127Z,9.60
2019-03-20T11:55:54.869Z,9.65
2019-03-20T11:58:21.638Z,9.65
2019-03-20T12:00:48.420Z,9.67
2019-03-20T12:03:16.402Z,9.68
2019-03-20T12:05:43.065Z,9.70
2019-03-20T12:08:11.639Z,9.71
2019-03-20T12:10:38.342Z,9.65
2019-03-20T12:13:05.122Z,9.58
2019-03-20T12:15:31.874Z,9.58
2019-03-20T12:17:58.888Z,9.57
2019-03-20T12:20:25.851Z,9.59
2019-03-20T12:22:52.820Z,9.57
2019-03-20T12:25:22.045Z,9.54
2019-03-20T12:27:48.805Z,9.49
2019-03-20T12:30:17.901Z,9.51
2019-03-20T12:32:44.590Z,9.46
2019-03-20T12:35:12.083Z,9.47
2019-03-20T12:37:38.783Z,9.40
2019-03-20T12:40:09.145Z,9.45
2019-03-20T12:42:35.827Z,9.47
2019-03-20T12:45:04.246Z,9.46
2019-03-20T12:47:31.023Z,9.46
2019-03-20T12:49:57.709Z,9.44
2019-03-20T12:52:24.519Z,9.38
2019-03-20T12:54:51.193Z,9.37
2019-03-20T12:57:18.095Z,9.42
2019-03-20T12:59:44.778Z,9.46
2019-03-20T13:02:11.748Z,9.48
2019-03-20T13:04:38.441Z,9.48
2019-03-20T13:07:05.152Z,9.49
2019-03-20T13:09:31.827Z,9.57
2019-03-20T13:11:58.601Z,9.56
2019-03-20T13:14:25.300Z,9.55
2019-03-20T13:16:52.117Z,9.55
2019-03-20T13:19:18.864Z,9.47
2019-03-20T13:21:47.606Z,9.58
2019-03-20T13:24:14.146Z,9.51
2019-03-20T13:26:40.929Z,9.52
2019-03-20T13:29:08.702Z,9.52
2019-03-20T13:31:35.393Z,9.49
2019-03-20T13:34:02.079Z,9.51
2019-03-20T13:36:28.746Z,9.52
2019-03-20T13:38:56.563Z,9.53
2019-03-20T13:41:23.444Z,9.57
2019-03-20T13:43:50.258Z,9.63
2019-03-20T13:46:16.954Z,9.60
2019-03-20T13:48:43.733Z,9.60
2019-03-20T13:51:10.552Z,9.52
2019-03-20T13:53:37.359Z,9.52
2019-03-20T13:56:04.119Z,9.55
2019-03-20T13:58:30.798Z,9.60
2019-03-20T14:00:57.502Z,9.62
2019-03-20T14:03:24.178Z,9.59
2019-03-20T14:06:06.555Z,9.65
2019-03-20T14:08:33.227Z,9.59
2019-03-20T14:11:00.127Z,9.60
2019-03-20T14:13:26.890Z,9.60
2019-03-20T14:15:53.679Z,9.55
2019-03-20T14:18:20.370Z,9.52
2019-03-20T14:20:47.034Z,9.70
2019-03-20T14:23:13.837Z,9.74
2019-03-20T14:25:40.518Z,9.62
2019-03-20T14:28:07.435Z,9.56
2019-03-20T14:30:34.309Z,9.58
2019-03-20T14:33:01.081Z,9.56
2019-03-20T14:35:28.749Z,9.59
2019-03-20T14:37:55.642Z,9.56
2019-03-20T14:40:34.861Z,9.62
2019-03-20T14:42:53.283Z,9.64
2019-03-20T14:45:20.113Z,9.84
2019-03-20T14:47:47.031Z,9.70
2019-03-20T14:50:15.233Z,9.63
2019-03-20T14:52:42.161Z,9.61
2019-03-20T14:55:10.074Z,9.58
2019-03-20T14:57:36.859Z,9.61
2019-03-20T15:00:04.777Z,9.64
2019-03-20T15:02:31.770Z,9.62
2019-03-20T15:04:58.498Z,9.59
2019-03-20T15:07:25.201Z,9.60
2019-03-20T15:09:51.971Z,9.65
2019-03-20T15:12:18.651Z,9.63
2019-03-20T15:14:45.462Z,9.70
2019-03-20T15:17:12.140Z,9.71
2019-03-20T15:19:39.149Z,9.67
2019-03-20T15:22:05.822Z,9.66
2019-03-20T15:24:32.500Z,9.73
2019-03-20T15:26:59.286Z,9.79
2019-03-20T15:29:25.976Z,9.79
2019-03-20T15:31:52.914Z,9.82
2019-03-20T15:34:19.950Z,9.34
2019-03-20T15:36:47.161Z,9.75
2019-03-20T15:39:13.880Z,9.90
2019-03-20T15:41:40.557Z,10.07
2019-03-20T15:44:07.242Z,10.03
2019-03-20T15:46:34.610Z,9.83
2019-03-20T15:49:01.289Z,9.79
2019-03-20T15:51:28.043Z,9.79
2019-03-20T15:53:54.815Z,9.76
2019-03-20T15:56:21.831Z,9.76
2019-03-20T15:58:49.244Z,9.75
2019-03-20T16:01:15.968Z,9.74
2019-03-20T16:03:42.676Z,9.77
2019-03-20T16:06:09.439Z,9.75
2019-03-20T16:08:36.231Z,9.71
2019-03-20T16:11:06.860Z,9.74
2019-03-20T16:13:31.613Z,9.75
2019-03-20T16:15:59.863Z,9.74
2019-03-20T16:18:26.521Z,9.72
2019-03-20T16:20:53.331Z,9.70
2019-03-20T16:23:20.005Z,9.72
2019-03-20T16:25:46.791Z,9.68
2019-03-20T16:28:13.460Z,9.69
2019-03-20T16:30:40.146Z,9.68
2019-03-20T16:33:06.910Z,9.64
2019-03-20T16:35:33.711Z,9.65
2019-03-20T16:38:00.489Z,9.65
2019-03-20T16:40:27.441Z,9.77
2019-03-20T16:42:54.515Z,9.66
2019-03-20T16:45:23.481Z,9.69
2019-03-20T16:47:50.278Z,9.67
2019-03-20T16:50:17.265Z,9.67
2019-03-20T16:52:44.169Z,9.63
2019-03-20T16:55:11.458Z,9.58
2019-03-20T16:57:38.366Z,9.52
2019-03-20T17:00:06.542Z,9.46
2019-03-20T17:02:33.423Z,9.39
2019-03-20T17:05:00.099Z,9.41
2019-03-20T17:07:26.778Z,9.42
2019-03-20T17:09:53.578Z,9.36
2019-03-20T17:12:20.351Z,9.33
2019-03-20T17:14:47.023Z,9.16
2019-03-20T17:17:13.822Z,9.33
2019-03-20T17:19:40.522Z,9.42
2019-03-20T17:22:07.998Z,9.33
2019-03-20T17:24:34.937Z,9.29
2019-03-20T17:27:01.709Z,9.25
2019-03-20T17:29:28.385Z,9.23
2019-03-20T17:31:55.052Z,9.21
2019-03-20T17:34:21.744Z,9.22
2019-03-20T17:36:48.406Z,9.23
2019-03-20T17:39:15.087Z,9.24
2019-03-20T17:41:41.897Z,9.26
2019-03-20T17:44:08.560Z,9.23
2019-03-20T17:46:35.358Z,9.24
2019-03-20T17:49:02.262Z,9.21
2019-03-20T17:51:29.747Z,9.24
2019-03-20T17:53:56.434Z,9.24
2019-03-20T17:56:23.123Z,9.22
2019-03-20T17:58:49.920Z,9.26
2019-03-20T18:01:16.613Z,9.26
2019-03-20T18:03:43.306Z,9.26
2019-03-20T18:06:10.002Z,9.30
2019-03-20T18:08:36.674Z,9.29
2019-03-20T18:11:03.462Z,9.31
2019-03-20T18:13:30.173Z,9.30
2019-03-20T18:15:56.942Z,9.33
2019-03-20T18:18:23.610Z,9.37
2019-03-20T18:20:50.401Z,9.34
2019-03-20T18:23:17.217Z,9.34
2019-03-20T18:25:44.071Z,9.36
2019-03-20T18:28:10.767Z,9.32
2019-03-20T18:30:38.679Z,9.33
2019-03-20T18:33:05.552Z,9.36
2019-03-20T18:35:32.383Z,9.40
2019-03-20T18:37:59.214Z,9.41
2019-03-20T18:40:26.460Z,9.42
2019-03-20T18:42:53.260Z,9.40
2019-03-20T18:45:20.098Z,9.37
2019-03-20T18:47:46.874Z,9.37
2019-03-20T18:50:14.614Z,9.36
2019-03-20T18:52:41.420Z,9.37
2019-03-20T18:55:08.991Z,9.35
2019-03-20T18:57:35.887Z,9.40
2019-03-20T19:00:03.861Z,9.50
2019-03-20T19:02:31.802Z,9.66
2019-03-20T19:04:58.492Z,9.43
2019-03-20T19:07:25.199Z,9.42
2019-03-20T19:09:52.014Z,9.38
2019-03-20T19:12:18.699Z,9.39
2019-03-20T19:14:45.376Z,9.36
2019-03-20T19:17:12.151Z,9.36
2019-03-20T19:19:39.078Z,9.39
2019-03-20T19:22:05.939Z,9.41
2019-03-20T19:24:32.622Z,9.41
2019-03-20T19:26:59.875Z,9.42
2019-03-20T19:29:26.534Z,9.40
2019-03-20T19:31:55.672Z,9.40
2019-03-20T19:34:23.132Z,9.39
2019-03-20T19:36:49.891Z,9.40
2019-03-20T19:39:16.796Z,9.37
2019-03-20T19:45:30.601Z,9.36
2019-03-20T19:47:57.812Z,9.36
2019-03-20T19:50:25.570Z,9.36
2019-03-20T19:52:52.245Z,9.33
2019-03-20T19:55:19.374Z,9.35
2019-03-20T19:57:46.168Z,9.34
2019-03-20T20:00:13.825Z,9.37
2019-03-20T20:02:40.707Z,9.36
2019-03-20T20:05:15.781Z,9.36
2019-03-20T20:07:36.550Z,9.37
2019-03-20T20:10:04.330Z,9.38
2019-03-20T20:12:31.727Z,9.43
2019-03-20T20:14:58.402Z,9.39
2019-03-20T20:17:25.185Z,9.39
2019-03-20T20:19:51.901Z,9.40
2019-03-20T20:22:18.697Z,9.40
2019-03-20T20:24:45.395Z,9.41
2019-03-20T20:27:12.545Z,9.42
2019-03-20T20:29:39.289Z,9.53
2019-03-20T20:32:06.337Z,9.48
2019-03-20T20:34:33.300Z,9.44
2019-03-20T20:37:00.089Z,9.44
2019-03-20T20:39:26.788Z,9.43
2019-03-20T20:41:53.935Z,9.40
2019-03-20T20:44:20.639Z,9.38
2019-03-20T20:46:47.319Z,9.39
2019-03-20T20:49:13.986Z,9.38
2019-03-20T20:51:40.757Z,9.43
2019-03-20T20:54:08.311Z,9.39
2019-03-20T20:56:34.997Z,9.40
2019-03-20T20:59:01.778Z,9.38
2019-03-20T21:01:30.204Z,9.38
2019-03-20T21:03:57.939Z,9.51
2019-03-20T21:06:24.627Z,9.50
2019-03-20T21:08:51.329Z,9.47
2019-03-20T21:11:17.995Z,9.47
2019-03-20T21:13:44.668Z,9.43
2019-03-20T21:16:11.876Z,9.42
2019-03-20T21:19:19.521Z,9.47
2019-03-20T21:22:33.025Z,9.46
2019-03-20T21:25:00.485Z,9.39
2019-03-20T21:27:55.082Z,9.38
2019-03-20T21:30:54.134Z,9.38
2019-03-20T21:34:08.313Z,9.40
2019-03-20T21:37:24.721Z,9.42
2019-03-20T21:39:52.251Z,9.39
2019-03-20T21:43:06.496Z,9.47
2019-03-20T21:46:00.347Z,9.38
2019-03-20T21:48:27.577Z,9.38
2019-03-20T21:51:24.940Z,9.38
2019-03-20T21:54:33.518Z,9.42
2019-03-20T21:57:47.094Z,9.38
2019-03-20T22:00:43.269Z,9.36
2019-03-20T22:03:10.574Z,9.37
2019-03-20T22:06:18.826Z,9.33
2019-03-20T22:08:46.779Z,9.36
2019-03-20T22:11:57.319Z,9.40
2019-03-20T22:14:24.651Z,9.35
2019-03-20T22:17:50.686Z,9.33
2019-03-20T22:20:25.175Z,9.31
2019-03-20T22:23:22.591Z,9.28
2019-03-20T22:26:49.321Z,9.26
2019-03-20T22:29:24.078Z,9.30
2019-03-20T22:32:47.833Z,9.27
2019-03-20T22:35:50.626Z,9.28
2019-03-20T22:38:41.107Z,9.27
2019-03-20T22:41:45.983Z,9.29
2019-03-20T22:44:15.161Z,9.28
2019-03-20T22:47:32.292Z,9.25
2019-03-20T22:50:11.310Z,9.27
2019-03-20T22:53:21.376Z,9.29
2019-03-20T22:56:24.247Z,9.29
2019-03-20T22:58:51.443Z,9.32
2019-03-20T23:01:29.966Z,9.34
2019-03-20T23:04:05.197Z,9.34
2019-03-20T23:06:32.618Z,9.31
2019-03-20T23:08:59.829Z,9.33
2019-03-20T23:11:27.042Z,9.35
2019-03-20T23:13:54.336Z,9.34
2019-03-20T23:16:21.930Z,9.35
2019-03-20T23:18:50.247Z,9.35
2019-03-20T23:21:17.677Z,9.37
2019-03-20T23:23:44.898Z,9.36
2019-03-20T23:26:12.984Z,9.37
2019-03-20T23:28:40.777Z,9.38
2019-03-20T23:31:07.986Z,9.37
2019-03-20T23:33:35.657Z,9.40
2019-03-20T23:36:02.978Z,9.42
2019-03-20T23:38:30.303Z,9.42
2019-03-20T23:40:57.601Z,9.43
2019-03-20T23:43:25.002Z,9.43
2019-03-20T23:45:52.194Z,9.43
2019-03-20T23:48:43.888Z,9.46
2019-03-20T23:51:15.023Z,9.47
2019-03-20T23:53:45.781Z,9.46
2019-03-20T23:56:13.252Z,9.45
2019-03-20T23:58:40.553Z,9.48
